Time;durP1;ratioP1;P1;durP2;ratioP2;P2;SDS_P1;SDS_P2;PMS_P1;PMS_P2;Temp;Humidity;BMP_temperature;BMP_pressure;BME280_temperature;BME280_humidity;BME280_pressure;Samples;Min_cycle;Max_cycle;Signal;HPM_P1;HPM_P2
2022/12/29 00:01:38;;;;;;;22.33;4.97;;;11.50;99.90;;;10.55;100.00;100379.34;4169257;28;20044;-71
2022/12/29 00:03:39;;;;;;;24.08;3.92;;;11.40;99.90;;;10.57;100.00;100381.84;4170212;28;20120;-71
2022/12/29 00:05:40;;;;;;;18.40;3.97;;;11.40;99.90;;;10.55;100.00;100381.97;4170075;28;20034;-71
2022/12/29 00:07:41;;;;;;;16.42;3.15;;;11.40;99.90;;;10.54;100.00;100382.16;4169878;28;20417;-71
2022/12/29 00:09:42;;;;;;;16.25;2.92;;;11.40;99.90;;;10.52;100.00;100386.75;4169511;28;20056;-71
2022/12/29 00:11:43;;;;;;;13.80;2.88;;;11.40;99.90;;;10.52;100.00;100384.13;4169879;28;20037;-71
2022/12/29 00:16:07;;;;;;;18.35;3.60;;;11.40;99.90;;;10.56;100.00;100364.34;4169546;28;20076;-71
2022/12/29 00:18:08;;;;;;;15.38;3.90;;;11.40;99.90;;;10.49;100.00;100376.53;4170239;28;20112;-71
2022/12/29 00:36:43;;;;;;;12.82;2.60;;;11.10;99.90;;;10.03;100.00;100384.00;4163852;28;20040;-71
2022/12/29 00:45:58;;;;;;;21.13;3.40;;;10.90;99.90;;;9.97;100.00;100389.13;4169393;28;20036;-71
2022/12/29 00:47:58;;;;;;;27.60;4.63;;;10.90;99.90;;;9.90;100.00;100388.94;4169317;28;20393;-71
2022/12/29 00:49:59;;;;;;;25.63;4.22;;;10.80;99.90;;;9.86;100.00;100382.31;4169292;28;20036;-71
2022/12/29 00:52:07;;;;;;;17.38;3.53;;;10.70;99.90;;;9.80;100.00;100377.69;4169422;28;20080;-71
2022/12/29 00:54:08;;;;;;;22.73;4.45;;;10.70;99.90;;;10.01;100.00;100375.44;4160168;28;20021;-71
2022/12/29 00:56:09;;;;;;;19.00;4.68;;;10.80;99.90;;;9.97;100.00;100383.84;4146159;28;20421;-71
2022/12/29 00:58:10;;;;;;;23.85;5.22;;;10.80;99.90;;;10.08;100.00;100382.72;4169087;28;20033;-71
2022/12/29 01:00:12;;;;;;;25.65;4.93;;;10.90;99.90;;;10.08;100.00;100383.53;4168282;28;20112;-71
2022/12/29 01:02:13;;;;;;;24.13;6.10;;;10.90;99.90;;;10.15;100.00;100381.13;4169198;28;20040;-71
2022/12/29 01:04:14;;;;;;;36.90;6.07;;;11.00;99.90;;;10.16;100.00;100388.03;4169311;28;20026;-71
2022/12/29 01:06:15;;;;;;;26.45;4.50;;;11.00;99.90;;;10.22;100.00;100376.84;4169005;28;20522;-71
2022/12/29 01:08:16;;;;;;;28.52;5.30;;;11.00;99.90;;;10.16;100.00;100382.75;4167955;28;20540;-71
2022/12/29 01:10:17;;;;;;;32.50;5.03;;;11.00;99.90;;;10.15;100.00;100375.84;4168914;28;20025;-71
2022/12/29 01:12:40;;;;;;;26.83;5.18;;;11.00;99.90;;;10.15;100.00;100374.03;4151271;28;20493;-71
2022/12/29 01:14:39;;;;;;;28.17;5.35;;;11.00;99.90;;;10.15;100.00;100386.38;4167775;28;20068;-71
2022/12/29 01:16:40;;;;;;;34.60;5.35;;;11.00;99.90;;;10.23;100.00;100386.41;4168955;28;20139;-71
2022/12/29 01:18:41;;;;;;;28.40;5.78;;;11.10;99.90;;;10.30;100.00;100398.78;4167756;28;20068;-71
2022/12/29 01:20:42;;;;;;;28.60;5.60;;;11.10;99.90;;;10.30;100.00;100406.69;4168956;28;20025;-71
2022/12/29 01:22:43;;;;;;;16.42;3.85;;;11.10;99.90;;;10.25;100.00;100398.44;4167935;28;20107;-71
2022/12/29 01:24:44;;;;;;;22.55;4.88;;;11.10;99.90;;;10.18;100.00;100391.34;4168892;28;20504;-71
2022/12/29 01:26:46;;;;;;;24.20;3.58;;;11.00;99.90;;;10.00;100.00;100397.50;4151148;28;20022;-71
2022/12/29 01:28:47;;;;;;;17.88;3.25;;;10.90;99.90;;;9.99;100.00;100398.50;4167643;28;20025;-71
2022/12/29 01:30:48;;;;;;;18.50;3.85;;;10.90;99.90;;;9.90;100.00;100396.84;4168909;28;20024;-71
2022/12/29 01:32:48;;;;;;;29.17;4.90;;;10.80;99.90;;;9.82;100.00;100409.16;4168883;28;20018;-71
2022/12/29 01:34:49;;;;;;;22.67;3.33;;;10.70;99.90;;;9.79;100.00;100410.31;4167637;28;20060;-71
2022/12/29 01:36:50;;;;;;;17.30;3.65;;;10.70;99.90;;;9.71;100.00;100404.16;4167452;28;20456;-71
2022/12/29 01:38:51;;;;;;;20.55;3.83;;;10.70;99.90;;;9.68;100.00;100410.56;4168638;28;20026;-71
2022/12/29 01:40:52;;;;;;;20.40;3.42;;;10.60;99.90;;;9.72;100.00;100409.28;4167355;28;20022;-71
2022/12/29 01:42:53;;;;;;;19.35;4.15;;;10.60;99.90;;;9.77;100.00;100414.06;4167489;28;20033;-71
2022/12/29 01:44:57;;;;;;;22.58;3.50;;;10.60;99.90;;;9.74;100.00;100419.63;4167660;28;20032;-71
2022/12/29 01:46:58;;;;;;;25.10;4.30;;;10.60;99.90;;;9.74;100.00;100420.47;4168543;28;20017;-71
2022/12/29 01:49:18;;;;;;;22.65;5.13;;;10.60;99.90;;;9.81;100.00;100421.50;4168740;28;20476;-71
2022/12/29 01:51:23;;;;;;;36.38;4.40;;;10.60;99.90;;;9.81;100.00;100424.13;4167623;28;20030;-71
2022/12/29 01:53:36;;;;;;;28.33;5.15;;;10.70;99.90;;;9.81;100.00;100437.31;4165627;28;20024;-71
2022/12/29 01:55:48;;;;;;;27.58;5.35;;;10.70;99.90;;;9.86;100.00;100429.75;4164892;28;20489;-71
2022/12/29 01:57:52;;;;;;;27.10;4.93;;;10.70;99.90;;;9.80;100.00;100434.81;4167723;28;20120;-71
2022/12/29 02:00:08;;;;;;;30.83;6.53;;;10.70;99.90;;;9.87;100.00;100433.22;4167267;28;20088;-71
2022/12/29 02:02:09;;;;;;;22.17;4.30;;;10.70;99.90;;;9.89;100.00;100437.31;4167525;28;20524;-71
2022/12/29 02:04:12;;;;;;;28.08;4.10;;;10.70;99.90;;;9.83;100.00;100434.50;4167566;28;20056;-71
2022/12/29 02:06:43;;;;;;;34.05;4.82;;;10.70;99.90;;;9.72;100.00;100443.53;4167277;28;20501;-71
2022/12/29 02:08:47;;;;;;;21.95;4.40;;;10.70;99.90;;;9.71;100.00;100439.22;4168631;28;20026;-71
2022/12/29 02:10:48;;;;;;;20.10;3.67;;;10.60;99.90;;;9.71;100.00;100451.56;4167129;28;20116;-71
2022/12/29 02:12:49;;;;;;;16.20;4.47;;;10.60;99.90;;;9.82;100.00;100438.13;4167190;28;20032;-71
2022/12/29 02:14:58;;;;;;;19.88;3.70;;;10.60;99.90;;;9.69;100.00;100437.75;4167291;28;20056;-71
2022/12/29 02:17:32;;;;;;;17.13;4.15;;;10.60;99.90;;;9.65;100.00;100454.81;4151071;28;20070;-71
2022/12/29 02:19:57;;;;;;;18.92;3.22;;;10.50;99.90;;;9.51;100.00;100444.88;4168477;28;20037;-71
2022/12/29 02:22:20;;;;;;;18.95;2.60;;;10.40;99.90;;;9.46;100.00;100440.09;4168408;28;20083;-71
2022/12/29 02:25:21;;;;;;;13.82;2.60;;;10.30;99.90;;;9.17;100.00;100452.75;4169970;28;20485;-71
2022/12/29 02:27:34;;;;;;;10.10;2.83;;;10.20;99.90;;;9.15;100.00;100455.53;4170878;28;20124;-71
2022/12/29 02:29:45;;;;;;;19.73;3.13;;;10.10;99.90;;;9.16;100.00;100451.91;4171663;28;20413;-71
2022/12/29 02:32:05;;;;;;;18.60;2.85;;;10.10;99.90;;;9.12;100.00;100447.09;4171564;28;20025;-71
2022/12/29 02:34:33;;;;;;;14.32;2.83;;;10.00;99.90;;;9.18;100.00;100449.94;4170377;28;20021;-71
2022/12/29 02:36:52;;;;;;;20.50;3.30;;;10.10;99.90;;;9.16;100.00;100451.09;4171438;28;20047;-71
2022/12/29 02:39:19;;;;;;;15.95;2.80;;;10.00;99.90;;;9.17;100.00;100463.28;4154802;28;20063;-71
2022/12/29 02:41:34;;;;;;;23.50;3.88;;;10.00;99.90;;;9.23;100.00;100460.84;4171633;28;20045;-71
2022/12/29 02:44:02;;;;;;;15.65;3.92;;;10.10;99.90;;;9.32;100.00;100467.81;4171237;28;20484;-71
2022/12/29 02:46:31;;;;;;;20.10;4.45;;;10.10;99.90;;;9.38;100.00;100466.34;4170270;28;20029;-71
2022/12/29 02:49:00;;;;;;;16.63;3.17;;;10.20;99.90;;;9.40;100.00;100470.50;4171478;28;20030;-71
2022/12/29 02:51:24;;;;;;;23.58;4.53;;;10.30;99.90;;;9.48;100.00;100475.00;4170149;28;20095;-71
2022/12/29 02:55:52;;;;;;;18.92;3.67;;;10.30;99.90;;;9.45;100.00;100467.41;4161849;28;20029;-71
2022/12/29 02:58:14;;;;;;;21.17;4.07;;;10.30;99.90;;;9.47;100.00;100473.31;4171275;28;20044;-71
2022/12/29 03:00:17;;;;;;;16.05;3.10;;;10.40;99.90;;;9.49;100.00;100468.75;4171167;28;20485;-71
2022/12/29 03:02:37;;;;;;;20.45;3.75;;;10.40;99.90;;;9.52;100.00;100484.25;4169872;28;20030;-71
2022/12/29 03:04:39;;;;;;;20.92;4.00;;;10.40;99.90;;;9.47;100.00;100481.22;4171017;28;20026;-71
2022/12/29 03:07:17;;;;;;;22.10;4.40;;;10.40;99.90;;;9.43;100.00;100477.28;4171122;28;20116;-71
2022/12/29 03:09:42;;;;;;;15.85;3.22;;;10.30;99.90;;;9.33;100.00;100484.44;4155251;28;20037;-71
2022/12/29 03:17:44;;;;;;;26.45;5.85;;;10.20;99.90;;;9.19;100.00;100485.00;4169706;28;19939;-71
2022/12/29 03:19:48;;;;;;;;;;;10.20;99.90;;;9.20;100.00;100500.63;4171266;28;20029;-71
2022/12/29 03:24:34;;;;;;;26.15;4.40;;;10.20;99.90;;;9.29;100.00;100483.91;4169796;28;20052;-71
2022/12/29 03:26:37;;;;;;;27.02;4.22;;;10.20;99.90;;;9.49;100.00;100486.34;4169622;28;20040;-71
2022/12/29 03:28:53;;;;;;;19.05;4.22;;;10.20;99.90;;;9.35;100.00;100477.19;4169380;28;20037;-71
2022/12/29 03:30:57;;;;;;;26.67;3.85;;;10.20;99.90;;;9.32;100.00;100480.13;4157996;28;20128;-71
2022/12/29 03:33:06;;;;;;;21.77;3.35;;;10.20;99.90;;;9.23;100.00;100479.25;4185887;28;20087;-71
2022/12/29 03:35:11;;;;;;;27.10;3.45;;;10.10;99.90;;;9.14;100.00;100484.63;4184598;28;20530;-71
2022/12/29 03:37:18;;;;;;;22.85;4.22;;;10.10;99.90;;;9.12;100.00;100500.56;4169181;28;20040;-71
2022/12/29 03:39:23;;;;;;;21.15;4.05;;;10.00;99.90;;;9.04;100.00;100489.16;4170380;28;20029;-71
2022/12/29 03:41:30;;;;;;;21.52;4.13;;;10.00;99.90;;;9.03;100.00;100490.94;4152984;28;20040;-71
2022/12/29 03:43:31;;;;;;;26.00;4.38;;;9.90;99.90;;;9.05;100.00;100501.34;4169128;28;20083;-71
2022/12/29 03:45:32;;;;;;;18.92;3.90;;;9.90;99.90;;;9.11;100.00;100492.84;4169164;28;20416;-71
2022/12/29 03:47:33;;;;;;;20.30;3.67;;;9.90;99.90;;;9.15;100.00;100495.00;4170179;28;20034;-71
2022/12/29 03:49:34;;;;;;;19.92;3.58;;;10.00;99.90;;;9.11;100.00;100498.09;4169034;28;20112;-71
2022/12/29 03:51:35;;;;;;;16.40;2.72;;;10.00;99.90;;;9.11;100.00;100500.72;4167002;28;20048;-71
2022/12/29 03:53:36;;;;;;;23.98;4.65;;;10.00;99.90;;;9.05;100.00;100498.72;4170382;28;20038;-71
2022/12/29 03:55:37;;;;;;;17.10;4.38;;;10.00;99.90;;;9.04;100.00;100489.97;4170110;28;20450;-71
2022/12/29 03:57:38;;;;;;;12.93;2.78;;;9.90;99.90;;;8.99;100.00;100492.22;4170191;28;20033;-71
2022/12/29 03:59:39;;;;;;;16.90;3.33;;;9.90;99.90;;;8.92;100.00;100487.72;4170132;28;20028;-71
2022/12/29 04:01:40;;;;;;;24.08;3.53;;;9.90;99.90;;;8.88;100.00;100485.41;4170180;28;20072;-71
2022/12/29 04:03:40;;;;;;;18.48;2.80;;;9.80;99.90;;;8.94;100.00;100477.88;4169004;28;20029;-71
2022/12/29 04:05:41;;;;;;;21.25;4.00;;;9.80;99.90;;;8.92;100.00;100474.56;4170080;28;20033;-71
2022/12/29 04:07:42;;;;;;;16.10;3.92;;;9.80;99.90;;;8.96;100.00;100476.75;4169971;28;20171;-71
2022/12/29 04:09:43;;;;;;;14.13;2.63;;;9.80;99.90;;;8.95;100.00;100471.66;4169631;28;20037;-71
2022/12/29 04:11:44;;;;;;;12.98;2.47;;;9.80;99.90;;;8.93;100.00;100481.50;4169008;28;20026;-71
2022/12/29 04:13:45;;;;;;;19.92;3.40;;;9.80;99.90;;;8.82;100.00;100478.13;4169961;28;20040;-71
2022/12/29 04:15:46;;;;;;;15.27;2.33;;;9.70;99.90;;;8.87;100.00;100481.09;4169737;28;20427;-71
2022/12/29 04:17:47;;;;;;;15.38;3.53;;;9.80;99.90;;;8.82;100.00;100486.00;4169728;28;20036;-71
2022/12/29 04:19:48;;;;;;;17.70;2.72;;;9.70;99.90;;;8.80;100.00;100487.13;4169920;28;20374;-71
2022/12/29 04:21:49;;;;;;;12.00;2.50;;;9.70;99.90;;;8.78;100.00;100494.38;4169804;28;20084;-71
2022/12/29 04:23:49;;;;;;;8.95;2.72;;;9.60;99.90;;;8.71;100.00;100488.88;4169735;28;20396;-71
2022/12/29 04:25:50;;;;;;;17.85;4.13;;;9.60;99.90;;;8.71;100.00;100503.81;4168154;28;20452;-71
2022/12/29 04:27:51;;;;;;;14.50;3.13;;;9.60;99.90;;;8.64;100.00;100494.84;4169979;28;20036;-71
2022/12/29 04:29:52;;;;;;;19.83;3.53;;;9.60;99.90;;;8.61;100.00;100501.25;4168535;28;20025;-71
2022/12/29 04:31:53;;;;;;;20.38;3.78;;;9.60;99.90;;;8.60;100.00;100496.16;4168398;28;20025;-71
2022/12/29 04:33:54;;;;;;;14.40;3.17;;;9.60;99.90;;;8.80;100.00;100509.00;4168552;28;20025;-71
2022/12/29 04:35:55;;;;;;;12.27;3.22;;;9.60;99.90;;;8.88;100.00;100506.44;4168660;28;20021;-71
2022/12/29 04:37:56;;;;;;;19.17;2.67;;;9.70;99.90;;;9.04;100.00;100513.66;4168466;28;20101;-71
2022/12/29 04:39:57;;;;;;;22.35;4.70;;;9.80;99.90;;;9.10;100.00;100522.75;4169542;28;20063;-71
2022/12/29 04:41:58;;;;;;;12.27;2.92;;;9.90;99.90;;;9.12;100.00;100523.41;4169779;28;20017;-71
2022/12/29 04:43:59;;;;;;;22.10;3.75;;;10.00;99.90;;;9.19;100.00;100533.19;4169745;28;20030;-71
2022/12/29 04:46:00;;;;;;;21.05;3.33;;;10.10;99.90;;;9.20;100.00;100526.13;4169374;28;20028;-71
2022/12/29 04:48:01;;;;;;;26.00;3.17;;;10.10;99.90;;;9.23;100.00;100533.69;4168114;28;20564;-71
2022/12/29 04:50:02;;;;;;;16.63;3.13;;;10.10;99.90;;;9.24;100.00;100523.03;4169448;28;20021;-71
2022/12/29 04:52:03;;;;;;;17.73;3.75;;;10.10;99.90;;;9.49;100.00;100534.56;4168080;28;20093;-71
2022/12/29 04:54:04;;;;;;;23.83;5.00;;;10.20;99.90;;;9.24;100.00;100522.19;4162042;28;20029;-71
2022/12/29 04:56:06;;;;;;;22.67;3.05;;;10.20;99.90;;;9.03;100.00;100534.84;4163620;28;20032;-71
2022/12/29 04:58:07;;;;;;;16.48;4.20;;;10.00;99.90;;;8.85;100.00;100532.22;4168129;28;20542;-71
2022/12/29 05:00:09;;;;;;;19.40;3.65;;;9.80;99.90;;;8.83;100.00;100537.63;4168102;28;20064;-71
2022/12/29 05:02:10;;;;;;;17.98;3.20;;;9.70;99.90;;;8.65;100.00;100535.97;4168915;28;20051;-71
2022/12/29 05:04:11;;;;;;;18.90;4.20;;;9.70;99.90;;;8.49;100.00;100541.88;4169127;28;20040;-71
2022/12/29 05:06:12;;;;;;;16.23;3.47;;;9.50;99.90;;;8.49;100.00;100541.88;4169080;28;20025;-71
2022/12/29 05:08:13;;;;;;;18.80;3.20;;;9.50;99.90;;;8.48;100.00;100545.50;4169125;28;20493;-71
2022/12/29 05:10:14;;;;;;;19.58;3.17;;;9.40;99.90;;;8.53;100.00;100542.41;4168955;28;20026;-71
2022/12/29 05:12:15;;;;;;;17.77;2.90;;;9.50;99.90;;;8.46;100.00;100536.06;4167819;28;20079;-71
2022/12/29 05:14:16;;;;;;;17.35;2.95;;;9.40;99.90;;;8.50;100.00;100547.97;4168951;28;20014;-71
2022/12/29 05:16:16;;;;;;;17.73;3.35;;;9.40;99.90;;;8.51;100.00;100550.41;4155776;28;20053;-71
2022/12/29 05:18:18;;;;;;;12.82;2.78;;;9.40;99.90;;;8.49;100.00;100547.13;4169209;28;20017;-71
2022/12/29 05:20:19;;;;;;;18.80;2.97;;;9.40;99.90;;;8.39;100.00;100546.38;4169015;28;20029;-71
2022/12/29 05:22:20;;;;;;;16.13;3.58;;;9.30;99.90;;;8.33;100.00;100557.47;4167774;28;20029;-71
2022/12/29 05:24:22;;;;;;;23.77;3.55;;;9.30;99.90;;;8.26;100.00;100562.44;4167844;28;20066;-71
2022/12/29 05:26:22;;;;;;;15.20;3.08;;;9.20;99.90;;;8.24;100.00;100558.31;4167892;28;20029;-70
2022/12/29 05:28:23;;;;;;;19.30;3.30;;;9.20;99.90;;;8.20;100.00;100554.31;4168541;28;20535;-71
2022/12/29 05:30:24;;;;;;;18.85;3.60;;;9.10;99.90;;;8.10;100.00;100548.25;4168603;28;20033;-71
2022/12/29 05:32:25;;;;;;;20.27;3.08;;;9.10;99.90;;;8.05;100.00;100558.38;4168863;28;20029;-71
2022/12/29 05:34:26;;;;;;;19.38;2.97;;;9.00;99.90;;;7.95;100.00;100554.94;4168868;28;20017;-71
2022/12/29 05:36:27;;;;;;;21.48;3.00;;;8.90;99.90;;;7.93;100.00;100570.88;4168812;28;20037;-71
2022/12/29 05:38:28;;;;;;;19.23;2.85;;;8.90;99.90;;;7.91;100.00;100566.72;4167615;28;20049;-71
2022/12/29 05:40:29;;;;;;;16.27;2.90;;;8.80;99.90;;;7.88;100.00;100577.53;4167393;28;20052;-71
2022/12/29 05:42:30;;;;;;;17.02;3.22;;;8.80;99.90;;;7.86;100.00;100575.03;4168764;28;20033;-71
2022/12/29 05:44:31;;;;;;;13.98;3.45;;;8.70;99.90;;;7.88;100.00;100573.09;4168759;28;20064;-71
2022/12/29 05:46:32;;;;;;;23.45;4.25;;;8.70;99.90;;;7.86;100.00;100571.56;4168680;28;20037;-71
2022/12/29 05:48:32;;;;;;;16.67;3.65;;;8.70;99.90;;;7.81;100.00;100569.38;4167187;28;20596;-71
2022/12/29 05:50:33;;;;;;;16.63;3.22;;;8.70;99.90;;;7.76;100.00;100569.78;4168740;28;20370;-71
2022/12/29 05:52:34;;;;;;;15.60;3.55;;;8.70;99.90;;;7.71;100.00;100576.44;4168552;28;20026;-71
2022/12/29 05:54:35;;;;;;;17.73;3.42;;;8.70;99.90;;;7.67;100.00;100575.91;4156892;28;20053;-71
2022/12/29 05:56:36;;;;;;;24.75;3.95;;;8.60;99.90;;;7.72;100.00;100581.56;4166710;28;20025;-71
2022/12/29 05:58:37;;;;;;;20.17;3.50;;;8.60;99.90;;;7.79;100.00;100584.47;4169425;28;20021;-71
2022/12/29 06:00:37;;;;;;;16.42;2.97;;;8.60;99.90;;;7.79;100.00;100584.47;4172026;28;20034;-71
2022/12/29 06:02:38;;;;;;;20.70;3.90;;;8.60;99.90;;;7.74;100.00;100590.13;4171948;28;20029;-71
2022/12/29 06:04:39;;;;;;;30.50;4.25;;;8.60;99.90;;;7.75;100.00;100577.81;4172233;28;20040;-71
2022/12/29 06:06:40;;;;;;;24.13;2.97;;;8.60;99.90;;;7.82;100.00;100577.09;4170843;28;20029;-71
2022/12/29 06:08:41;;;;;;;19.30;3.85;;;8.60;99.90;;;7.80;100.00;100586.09;4171875;28;20057;-71
2022/12/29 06:10:42;;;;;;;20.00;4.07;;;8.60;99.90;;;7.77;100.00;100579.34;4171693;28;20464;-71
2022/12/29 06:12:43;;;;;;;20.80;3.50;;;8.60;99.90;;;7.67;100.00;100588.22;4171736;28;20030;-71
2022/12/29 06:14:44;;;;;;;21.48;3.67;;;8.60;99.90;;;7.62;100.00;100583.38;4171728;28;20041;-71
2022/12/29 06:16:44;;;;;;;25.42;4.13;;;8.60;99.90;;;7.57;100.00;100592.63;4171654;28;20051;-71
2022/12/29 06:18:46;;;;;;;27.23;5.50;;;8.50;99.90;;;7.60;100.00;100597.59;4171727;28;20026;-71
2022/12/29 06:20:47;;;;;;;25.00;3.75;;;8.50;99.90;;;7.54;100.00;100593.75;4171531;28;20504;-71
2022/12/29 06:22:49;;;;;;;27.55;4.25;;;8.50;99.90;;;7.46;100.00;100592.78;4170614;28;20021;-71
2022/12/29 06:24:50;;;;;;;29.85;6.25;;;8.40;99.90;;;7.41;100.00;100590.56;4153831;28;20038;-71
2022/12/29 06:26:50;;;;;;;25.90;4.97;;;8.40;99.90;;;7.42;100.00;100608.00;4171632;28;20049;-71
2022/12/29 06:28:51;;;;;;;25.17;4.47;;;8.30;99.90;;;7.42;100.00;100610.63;4171493;28;20029;-71
2022/12/29 06:30:52;;;;;;;28.90;4.95;;;8.30;99.90;;;7.36;100.00;100605.91;4171406;28;20022;-71
2022/12/29 06:32:54;;;;;;;23.77;4.13;;;8.30;99.90;;;7.32;100.00;100612.41;4171649;28;20036;-71
2022/12/29 06:34:55;;;;;;;20.63;3.88;;;8.20;99.90;;;7.28;100.00;100610.19;4171511;28;20504;-71
2022/12/29 06:36:56;;;;;;;22.60;4.20;;;8.20;99.90;;;7.27;100.00;100617.25;4171448;28;20021;-71
2022/12/29 06:38:56;;;;;;;30.60;4.78;;;8.20;99.90;;;7.28;100.00;100618.06;4170075;28;20072;-71
2022/12/29 06:40:57;;;;;;;29.77;4.18;;;8.20;99.90;;;7.34;100.00;100625.41;4170194;28;20057;-71
2022/12/29 06:42:58;;;;;;;36.80;6.45;;;8.20;99.90;;;7.30;100.00;100618.75;4153713;28;20022;-70
2022/12/29 06:45:00;;;;;;;23.70;4.90;;;8.20;99.90;;;7.32;100.00;100629.97;4170153;28;20556;-71
2022/12/29 06:47:01;;;;;;;20.95;4.15;;;8.20;99.90;;;7.34;100.00;100623.59;4186359;28;20103;-71
2022/12/29 06:49:02;;;;;;;30.63;5.55;;;8.20;99.90;;;7.39;100.00;100629.25;4170098;28;20021;-71
2022/12/29 06:51:03;;;;;;;26.88;5.43;;;8.30;99.90;;;7.43;100.00;100637.69;4169909;28;20033;-71
2022/12/29 06:53:05;;;;;;;27.48;4.28;;;8.40;99.90;;;7.68;100.00;100652.84;4170144;28;20029;-71
2022/12/29 06:55:06;;;;;;;22.77;4.63;;;8.50;99.90;;;7.78;100.00;100657.16;4170846;28;20037;-71
2022/12/29 06:57:07;;;;;;;29.55;4.93;;;8.60;99.90;;;8.08;100.00;100652.66;4170005;28;20025;-71
2022/12/29 06:59:09;;;;;;;31.33;4.97;;;8.80;99.90;;;8.25;100.00;100652.75;4186384;28;20024;-70
2022/12/29 07:01:10;;;;;;;24.27;3.65;;;9.00;99.90;;;8.40;100.00;100650.50;4170322;28;20022;-71
2022/12/29 07:03:11;;;;;;;19.83;3.20;;;9.10;99.90;;;8.50;100.00;100658.38;4153286;28;20033;-71
2022/12/29 07:05:13;;;;;;;24.38;4.15;;;9.20;99.90;;;8.46;100.00;100649.94;4169913;28;20600;-71
2022/12/29 07:07:14;;;;;;;23.92;4.22;;;9.30;99.90;;;8.39;100.00;100637.53;4169849;28;20045;-71
2022/12/29 07:09:15;;;;;;;18.25;3.85;;;9.30;99.90;;;8.46;100.00;100659.63;4170357;28;20032;-71
2022/12/29 07:11:16;;;;;;;24.67;4.60;;;9.30;99.90;;;8.40;100.00;100650.50;4170809;28;20069;-71
2022/12/29 07:13:17;;;;;;;23.70;3.60;;;9.30;99.90;;;8.39;100.00;100651.50;4169985;28;20412;-71
2022/12/29 07:15:18;;;;;;;21.80;3.78;;;9.30;99.90;;;8.30;100.00;100653.16;4170525;28;20083;-71
2022/12/29 07:17:18;;;;;;;19.75;4.05;;;9.30;99.90;;;8.31;100.00;100657.47;4169508;28;20117;-71
2022/12/29 07:19:20;;;;;;;20.83;3.60;;;9.20;99.90;;;8.23;100.00;100656.50;4169610;28;20139;-71
2022/12/29 07:21:20;;;;;;;19.20;4.07;;;9.10;99.90;;;8.16;100.00;100650.13;4170908;28;20117;-71
2022/12/29 07:23:21;;;;;;;18.52;3.67;;;9.10;99.90;;;8.09;100.00;100654.31;4169499;28;20025;-71
2022/12/29 07:25:23;;;;;;;17.38;3.78;;;9.00;99.90;;;7.97;100.00;100665.97;4170611;28;20034;-71
2022/12/29 07:27:23;;;;;;;11.75;2.35;;;8.90;99.90;;;7.80;100.00;100655.19;4170517;28;20040;-71
2022/12/29 07:29:24;;;;;;;14.38;3.00;;;8.80;99.90;;;7.82;100.00;100666.38;4169607;28;20034;-71
2022/12/29 07:31:25;;;;;;;16.75;3.08;;;8.80;99.90;;;7.72;100.00;100675.25;4169475;28;20025;-71
2022/12/29 07:33:29;;;;;;;12.13;2.45;;;8.70;99.90;;;7.63;100.00;100669.03;4169438;28;20029;-71
2022/12/29 07:35:30;;;;;;;16.20;3.03;;;8.60;99.90;;;7.66;100.00;100674.00;4169310;28;20045;-72
2022/12/29 07:37:30;;;;;;;12.18;2.45;;;8.60;99.90;;;7.64;100.00;100677.75;4169585;28;20037;-71
2022/12/29 07:39:31;;;;;;;14.10;2.70;;;8.60;99.90;;;7.78;100.00;100693.06;4169315;28;20528;-71
2022/12/29 07:41:32;;;;;;;20.48;3.55;;;8.70;99.90;;;7.88;100.00;100699.16;4170578;28;20033;-71
2022/12/29 07:43:34;;;;;;;17.00;3.00;;;8.70;99.90;;;7.98;100.00;100712.25;4169303;28;20037;-71
2022/12/29 07:45:34;;;;;;;18.98;3.47;;;8.80;99.90;;;8.12;100.00;100727.59;4169532;28;20033;-71
2022/12/29 07:47:35;;;;;;;21.38;3.08;;;8.90;99.90;;;8.11;100.00;100726.78;4170379;28;20041;-71
2022/12/29 07:49:36;;;;;;;20.63;3.25;;;9.00;99.90;;;8.10;100.00;100719.84;4169871;28;20026;-71
2022/12/29 07:51:37;;;;;;;10.90;2.38;;;9.10;99.90;;;8.08;100.00;100726.22;4172206;28;20450;-71
2022/12/29 07:53:38;;;;;;;12.15;2.20;;;9.10;99.90;;;8.06;100.00;100717.66;4170298;28;20021;-71
2022/12/29 07:55:39;;;;;;;8.85;1.95;;;9.00;99.90;;;8.04;100.00;100711.69;4170161;28;20036;-71
2022/12/29 07:57:40;;;;;;;14.70;2.55;;;9.00;99.90;;;8.10;100.00;100706.72;4169826;28;20029;-71
2022/12/29 07:59:41;;;;;;;12.27;2.33;;;9.00;99.90;;;8.14;100.00;100709.91;4168856;28;20045;-71
2022/12/29 08:01:42;;;;;;;15.68;2.10;;;9.00;99.90;;;8.04;100.00;100699.41;4170232;28;20029;-71
2022/12/29 08:03:43;;;;;;;11.52;2.38;;;9.00;99.90;;;8.10;100.00;100709.34;4169067;28;20068;-71
2022/12/29 08:05:44;;;;;;;11.82;2.15;;;9.10;99.90;;;8.07;100.00;100700.91;4168947;28;20524;-71
2022/12/29 08:07:46;;;;;;;10.10;2.10;;;9.00;99.90;;;8.09;100.00;100712.97;4169557;28;20052;-71
2022/12/29 08:09:47;;;;;;;9.95;1.63;;;9.00;99.90;;;8.07;100.00;100709.63;4168432;28;20067;-71
2022/12/29 08:11:48;;;;;;;13.70;2.05;;;9.10;99.90;;;8.01;100.00;100710.19;4168718;28;20043;-71
2022/12/29 08:13:49;;;;;;;12.73;2.13;;;9.00;99.90;;;7.91;100.00;100709.38;4169556;28;20533;-71
2022/12/29 08:15:50;;;;;;;14.57;2.47;;;8.90;99.90;;;7.82;100.00;100712.00;4168207;28;20056;-71
2022/12/29 08:17:50;;;;;;;16.13;2.83;;;8.80;99.90;;;7.70;100.00;100696.41;4168463;28;20044;-71
2022/12/29 08:19:51;;;;;;;10.27;2.15;;;8.70;99.90;;;7.64;100.00;100702.22;4169895;28;20481;-72
2022/12/29 08:21:53;;;;;;;9.95;2.40;;;8.60;99.90;;;7.52;100.00;100700.69;4167743;28;20049;-70
2022/12/29 08:23:54;;;;;;;10.00;2.13;;;8.60;99.90;;;7.41;100.00;100695.53;4169659;28;20108;-70
2022/12/29 08:26:01;;;;;;;9.77;1.65;;;8.50;99.90;;;7.39;100.00;100697.47;4169689;28;20084;-70
2022/12/29 08:28:02;;;;;;;12.15;2.40;;;8.40;99.90;;;7.28;100.00;100691.53;4168601;28;20539;-71
2022/12/29 08:30:04;;;;;;;9.70;2.47;;;8.30;99.90;;;7.23;100.00;100703.25;4168511;28;20096;-70
2022/12/29 08:32:05;;;;;;;8.43;2.35;;;8.30;99.90;;;7.22;100.00;100712.09;4168392;28;20183;-71
2022/12/29 08:34:06;;;;;;;14.52;3.58;;;8.20;99.90;;;7.15;100.00;100712.78;4169799;28;20026;-71
2022/12/29 08:36:08;;;;;;;8.85;2.95;;;8.10;99.90;;;7.09;100.00;100705.44;4152029;28;20472;-71
2022/12/29 08:38:11;;;;;;;12.00;3.38;;;8.10;99.90;;;7.07;100.00;100710.00;4168442;28;20521;-70
2022/12/29 08:40:12;;;;;;;13.07;2.75;;;8.00;99.90;;;7.04;100.00;100724.22;4169275;28;20088;-71
2022/12/29 08:42:13;;;;;;;11.65;2.45;;;8.00;99.90;;;6.98;100.00;100718.66;4169527;28;20030;-70
2022/12/29 08:44:13;;;;;;;7.78;1.38;;;7.90;99.90;;;6.95;100.00;100725.00;4168357;28;20040;-71
2022/12/29 08:46:15;;;;;;;11.57;3.13;;;7.90;99.90;;;6.97;100.00;100730.94;4168297;28;20032;-71
2022/12/29 08:48:21;;;;;;;10.27;1.73;;;7.90;99.90;;;6.91;100.00;100726.22;4169302;28;20405;-70
2022/12/29 08:50:22;;;;;;;6.55;2.17;;;7.90;99.90;;;6.97;100.00;100736.19;4168293;28;20014;-71
2022/12/29 08:52:23;;;;;;;8.98;2.55;;;7.90;99.90;;;7.01;100.00;100740.22;4169376;28;20025;-71
2022/12/29 08:54:24;;;;;;;10.57;1.90;;;7.90;99.90;;;7.02;100.00;100751.50;4169066;28;20022;-71
2022/12/29 08:56:25;;;;;;;10.75;1.90;;;7.90;99.90;;;6.99;100.00;100739.50;4169196;28;20482;-71
2022/12/29 08:58:27;;;;;;;9.10;2.00;;;8.00;99.90;;;7.07;100.00;100746.72;4168233;28;20091;-70
2022/12/29 09:00:28;;;;;;;11.32;2.38;;;8.00;99.90;;;7.15;100.00;100749.50;4167794;28;20033;-71
2022/12/29 09:02:29;;;;;;;11.27;2.85;;;8.10;99.90;;;7.24;100.00;100754.78;4166511;28;20030;-69
2022/12/29 09:04:29;;;;;;;14.65;3.20;;;8.10;99.90;;;7.24;100.00;100752.16;4167154;28;20026;-70
2022/12/29 09:06:30;;;;;;;10.40;2.33;;;8.20;99.90;;;7.27;100.00;100745.78;4167552;28;20029;-70
2022/12/29 09:08:31;;;;;;;12.52;2.47;;;8.20;99.90;;;7.29;100.00;100743.06;4167271;28;20481;-69
2022/12/29 09:10:32;;;;;;;10.70;1.98;;;8.20;99.90;;;7.27;100.00;100745.78;4168186;28;20024;-70